Have a Safe July 4th! 

Flight Track Log - Related Links

Times and Time Zones

All times are in EST time to prevent confusion due to time zone crossing. See the N45NS flight status page for this flight to view local times or setup timezone preferences in your user account.

Time Position Orientation Groundspeed Altitude Reporting Facility
EST Latitude Longitude Course Direction KTS MPH feet Rate Location/Type
Sun 01:38:51 PM 40.8675 -96.7817 315° West 188 216 2,600  Level Minneapolis Center
Sun 01:40:03 PM 40.8906 -96.8700 289° West 250 288 5,500 3,269 Climbing Minneapolis Center
Sun 01:41:05 PM 40.8778 -96.9869 262° West 262 302 9,900 3,805 Climbing Minneapolis Center
Sun 01:42:06 PM 40.8689 -97.0903 264° West 276 318 13,300 3,220 Climbing Minneapolis Center
Sun 01:43:08 PM 40.8592 -97.1936 263° West 280 322 16,500 2,855 Climbing Minneapolis Center
Sun 01:44:10 PM 40.8492 -97.2958 263° West 280 322 19,200 2,758 Climbing Minneapolis Center
Sun 01:45:12 PM 40.8406 -97.4069 264° West 280 322 22,200 2,613 Climbing Minneapolis Center
Sun 01:46:14 PM 40.8286 -97.5131 262° West 287 330 24,600 2,323 Climbing Minneapolis Center
Sun 01:47:16 PM 40.8150 -97.6208 261° West 295 339 27,000 2,537 Climbing Minneapolis Center
Sun 01:48:17 PM 40.7828 -97.7144 246° West 283 326 29,800 2,341 Climbing Minneapolis Center
Sun 01:49:19 PM 40.7583 -97.8078 251° West 274 315 31,800 1,839 Climbing Minneapolis Center
Sun 01:50:21 PM 40.7386 -97.9014 254° West 266 306 33,600 1,065 Climbing Minneapolis Center
Sun 01:51:23 PM 40.7297 -98.0272 265° West 282 325 34,000 194 Climbing Minneapolis Center
Sun 01:52:25 PM 40.7058 -98.1422 255° West 315 362 34,000 435 Level Minneapolis Center
Sun 01:53:27 PM 40.6731 -98.2581 250° West 329 379 34,900 976 Climbing Minneapolis Center
Sun 01:54:28 PM 40.6444 -98.3717 252° West 329 379 36,000 537 Climbing Minneapolis Center
Sun 01:55:30 PM 40.6178 -98.4878 253° West 328 377 36,000 435 Level Minneapolis Center
Sun 01:56:32 PM 40.6008 -98.6136 260° West 340 391 36,900 919 Climbing Minneapolis Center
Sun 01:57:34 PM 40.5961 -98.7381 267° West 341 392 37,900 532 Climbing Minneapolis Center
Sun 01:58:36 PM 40.5886 -98.8594 265° West 334 384 38,000 49 Climbing Minneapolis Center
Sun 01:59:37 PM 40.5822 -98.9858 266° West 338 389 38,000  Level Minneapolis Center
Sun 02:00:39 PM 40.5725 -99.1406 265° West 346 398 38,000  Level Minneapolis Center
Sun 02:01:11 PM 40.5694 -99.1928 266° West 352 405 38,000  Level Denver Center
Sun 02:02:13 PM 40.5619 -99.3219 266° West 352 405 38,000  Level Denver Center
Sun 02:03:15 PM 40.5539 -99.4500 265° West 352 405 38,000  Level Denver Center
Sun 02:04:17 PM 40.5439 -99.6042 265° West 352 405 38,000  Level Denver Center
Sun 02:05:20 PM 40.5367 -99.7319 266° West 350 403 38,000  Level Denver Center
Sun 02:06:22 PM 40.5283 -99.8600 265° West 351 404 38,000  Level Denver Center
Sun 02:07:24 PM 40.5189 -99.9922 265° West 351 404 38,000  Level Denver Center
Sun 02:08:26 PM 40.5114 -100.1164 265° West 352 405 38,000  Level Denver Center
Sun 02:09:28 PM 40.5014 -100.2611 265° West 354 407 38,000  Level Denver Center
Sun 02:10:30 PM 40.4931 -100.3844 265° West 354 407 38,000  Level Denver Center
Sun 02:11:32 PM 40.4822 -100.5300 264° West 355 409 38,000  Level Denver Center
Sun 02:12:34 PM 40.4739 -100.6553 265° West 356 410 38,000  Level Denver Center
Sun 02:13:36 PM 40.4631 -100.8017 264° West 356 410 38,000  Level Denver Center
Sun 02:14:38 PM 40.4531 -100.9264 264° West 356 410 38,000  Level Denver Center
Sun 02:15:41 PM 40.4386 -101.0511 261° West 357 411 38,000  Level Denver Center
Sun 02:16:43 PM 40.4206 -101.1978 261° West 361 415 38,000  Level Denver Center
Sun 02:17:45 PM 40.4042 -101.3225 260° West 362 417 38,000  Level Denver Center
Sun 02:18:47 PM 40.3861 -101.4700 261° West 363 418 38,000  Level Denver Center
Sun 02:19:49 PM 40.3689 -101.5967 260° West 366 421 38,000  Level Denver Center
Sun 02:20:51 PM 40.3503 -101.7464 261° West 369 425 38,000  Level Denver Center
Sun 02:22:06 PM 40.3275 -101.9169 260° West 371 427 38,000  Level Denver Center
Sun 02:23:08 PM 40.3117 -102.0456 261° West 371 427 38,000  Level Denver Center
Sun 02:24:10 PM 40.2936 -102.1722 259° West 371 427 38,000  Level Denver Center
Sun 02:25:12 PM 40.2733 -102.3208 260° West 372 428 38,000  Level Denver Center
Sun 02:26:14 PM 40.2575 -102.4492 261° West 372 428 38,000  Level Denver Center
Sun 02:27:16 PM 40.2356 -102.6011 259° West 371 427 38,000  Level Denver Center
Sun 02:28:18 PM 40.2200 -102.7147 260° West 371 427 38,000  Level Denver Center
Sun 02:29:20 PM 40.1981 -102.8736 260° West 371 427 38,000  Level Denver Center
Sun 02:30:22 PM 40.1800 -103.0058 260° West 371 427 38,000  Level Denver Center
Sun 02:31:24 PM 40.1608 -103.1381 259° West 372 428 38,000  Level Denver Center
Sun 02:32:27 PM 40.1469 -103.2708 262° West 372 428 38,000  Level Denver Center
Sun 02:33:29 PM 40.1383 -103.4061 265° West 372 428 38,000  Level Denver Center
Sun 02:34:31 PM 40.1267 -103.5689 265° West 375 432 38,000 -387 Level Denver Center
Sun 02:35:33 PM 40.1178 -103.7042 265° West 377 434 37,200 -871 Descending Denver Center
Sun 02:36:35 PM 40.1075 -103.8414 264° West 379 436 36,200 -919 Descending Denver Center
Sun 02:37:37 PM 40.0969 -103.9797 264° West 383 441 35,300 -919 Descending Denver Center
Sun 02:38:39 PM 40.0861 -104.1219 264° West 389 448 34,300 -919 Descending Denver Center
Sun 02:39:41 PM 40.0753 -104.2636 264° West 394 453 33,400 -1,016 Descending Denver Center
Sun 02:40:43 PM 40.0619 -104.4336 264° West 395 455 32,200 -1,065 Descending Denver Center
Sun 02:41:45 PM 40.0511 -104.5686 264° West 384 442 31,200 -930 Descending Denver Center
Sun 02:43:50 PM 40.0336 -104.8333 270° West 373 429 29,300 -963 Descending Denver Center
Sun 02:44:52 PM 40.0317 -104.9953 269° West 373 429 28,200 -1,016 Descending Denver Center
Sun 02:45:54 PM 40.0300 -105.1294 269° West 376 433 27,200 -581 Descending Denver Center
Sun 02:46:56 PM 40.0283 -105.2672 269° West 377 434 27,000 -290 Descending Denver Center
Sun 02:47:58 PM 40.0261 -105.4069 269° West 384 442 26,600 -677 Descending Denver Center
Sun 02:49:00 PM 40.0222 -105.5514 268° West 397 457 25,600 -1,113 Descending Denver Center
Sun 02:50:02 PM 40.0194 -105.7269 269° West 403 464 24,300 -774 Descending Denver Center
Sun 02:51:04 PM 40.0161 -105.8706 268° West 402 463 24,000 -145 Descending Denver Center
Sun 02:52:06 PM 40.0128 -106.0167 268° West 401 461 24,000 -240 Level Denver Center
Sun 02:53:09 PM 40.0097 -106.1631 268° West 402 463 23,500 -1,200 Descending Denver Center
Sun 02:54:11 PM 40.0064 -106.3031 268° West 395 455 21,500 -2,032 Descending Denver Center
Sun 02:55:13 PM 39.9742 -106.4386 253° West 397 457 19,300 -2,032 Descending Denver Center
Sun 02:56:15 PM 39.8767 -106.4964 204° Southwest 390 449 17,300 -1,597 Descending Denver Center
Sun 02:57:17 PM 39.7900 -106.5383 200° South 341 392 16,000 -629 Descending Denver Center
Sun 02:58:19 PM 39.7922 -106.6508 272° West 265 305 16,000  Level Denver Center
Sun 02:59:21 PM 39.8050 -106.7428 280° West 262 302 16,000  Level Denver Center
Sun 03:00:23 PM 39.8311 -106.8258 292° West 265 305 16,000  Level Denver Center
Sun 03:01:25 PM 39.9061 -106.8239 North 270 311 16,000 -242 Level Denver Center
Sun 03:02:27 PM 39.9794 -106.8144 North 268 308 15,500 -581 Descending Denver Center
Sun 03:03:29 PM 40.0478 -106.8072 North 250 288 14,800 -726 Descending Denver Center
Sun 03:04:31 PM 40.1058 -106.7575 33° Northeast 228 262 14,000 -387 Descending Denver Center
Sun 03:05:33 PM 40.0978 -106.6947 100° East 223 257 14,000  Level Denver Center
Sun 03:06:35 PM 40.0394 -106.6625 157° South 227 261 14,000  Level Denver Center
Sun 03:07:37 PM 39.9806 -106.6331 159° South 227 261 14,000  Level Denver Center
Sun 03:08:39 PM 39.9222 -106.6028 158° South 227 261 14,000  Level Denver Center
Sun 03:09:41 PM 39.8619 -106.5711 158° South 227 261 14,000  Level Denver Center
Sun 03:10:43 PM 39.8014 -106.5392 158° South 228 262 14,000 -387 Level Denver Center
Sun 03:11:45 PM 39.7339 -106.5550 190° South 230 265 13,200 -629 Descending Denver Center
Sun 03:12:47 PM 39.6875 -106.5964 214° Southwest 215 247 12,700 -919 Descending Denver Center
Sun 03:13:49 PM 39.6794 -106.6683 262° West 203 234 11,300 -1,355 Descending Denver Center
Sun 03:14:51 PM 39.6644 -106.7575 258° West 206 237 9,900 -1,403 Descending Denver Center
Sun 03:15:53 PM 39.6525 -106.8211 256° West 191 220 8,400 -1,355 Descending Denver Center
Sun 03:16:55 PM 39.6456 -106.8814 262° West 179 206 7,100 -1,258 Descending Denver Center

Login

Don't have an account? Register now (free) for customized features, flight alerts, and more!